createdAt,value
2019-03-13T00:01:28.030Z,8.43
2019-03-13T00:02:37.441Z,8.73
2019-03-13T00:03:42.736Z,8.20
2019-03-13T00:04:47.991Z,8.07
2019-03-13T00:05:53.703Z,8.83
2019-03-13T00:06:58.980Z,10.30
2019-03-13T00:08:04.294Z,10.03
2019-03-13T00:09:12.702Z,7.77
2019-03-13T00:10:18.137Z,9.03
2019-03-13T00:11:23.385Z,10.43
2019-03-13T00:12:28.648Z,9.53
2019-03-13T00:13:33.978Z,10.93
2019-03-13T00:14:39.251Z,12.73
2019-03-13T00:15:44.540Z,5.33
2019-03-13T00:16:49.730Z,9.03
2019-03-13T00:17:56.746Z,7.80
2019-03-13T00:19:02.031Z,13.37
2019-03-13T00:20:07.852Z,10.33
2019-03-13T00:21:13.190Z,9.50
2019-03-13T00:22:18.375Z,9.57
2019-03-13T00:23:23.585Z,13.87
2019-03-13T00:24:28.876Z,9.30
2019-03-13T00:25:34.132Z,6.20
2019-03-13T00:26:40.470Z,8.00
2019-03-13T00:27:45.690Z,10.73
2019-03-13T00:28:50.875Z,9.93
2019-03-13T00:29:56.133Z,7.67
2019-03-13T00:31:01.386Z,8.57
2019-03-13T00:32:09.646Z,9.53
2019-03-13T00:33:14.861Z,7.93
2019-03-13T00:34:20.127Z,10.87
2019-03-13T00:35:25.363Z,11.63
2019-03-13T00:36:30.725Z,6.37
2019-03-13T00:37:35.958Z,8.67
2019-03-13T00:38:41.262Z,9.93
2019-03-13T00:39:46.538Z,8.53
2019-03-13T00:40:51.836Z,11.97
2019-03-13T00:41:57.110Z,11.67
2019-03-13T00:43:02.397Z,9.53
2019-03-13T00:44:07.671Z,8.60
2019-03-13T00:45:13.904Z,7.73
2019-03-13T00:46:19.144Z,9.30
2019-03-13T00:47:24.301Z,7.77
2019-03-13T00:48:29.496Z,12.90
2019-03-13T00:49:34.810Z,13.60
2019-03-13T00:50:40.149Z,10.07
2019-03-13T00:51:45.363Z,17.17
2019-03-13T00:52:50.622Z,8.07
2019-03-13T00:53:55.832Z,9.80
2019-03-13T00:55:01.116Z,10.93
2019-03-13T00:56:06.495Z,6.40
2019-03-13T00:57:11.686Z,7.07
2019-03-13T00:58:16.959Z,12.17
2019-03-13T00:59:22.218Z,6.93
2019-03-13T01:00:45.282Z,12.17
2019-03-13T01:02:07.920Z,8.40
2019-03-13T01:03:32.213Z,8.80
2019-03-13T01:04:59.497Z,10.13
2019-03-13T01:06:06.856Z,9.87
2019-03-13T01:07:12.576Z,10.27
2019-03-13T01:08:18.902Z,10.97
2019-03-13T01:09:24.034Z,10.00
2019-03-13T01:10:29.349Z,11.30
2019-03-13T01:11:34.620Z,12.10
2019-03-13T01:12:39.921Z,8.77
2019-03-13T01:13:45.095Z,13.67
2019-03-13T01:14:50.315Z,10.30
2019-03-13T01:15:55.576Z,14.00
2019-03-13T01:17:00.890Z,10.10
2019-03-13T01:18:06.134Z,10.80
2019-03-13T01:19:11.315Z,11.60
2019-03-13T01:20:16.489Z,8.90
2019-03-13T01:21:21.711Z,9.87
2019-03-13T01:22:27.012Z,12.13
2019-03-13T01:23:32.171Z,11.57
2019-03-13T01:24:37.400Z,9.87
2019-03-13T01:25:42.595Z,13.37
2019-03-13T01:26:47.899Z,11.97
2019-03-13T01:27:53.167Z,13.67
2019-03-13T01:28:58.451Z,9.03
2019-03-13T01:30:04.331Z,16.73
2019-03-13T01:31:26.382Z,8.93
2019-03-13T01:32:44.871Z,11.50
2019-03-13T01:33:50.010Z,12.63
2019-03-13T01:35:12.926Z,14.03
2019-03-13T01:36:18.257Z,10.30
2019-03-13T01:37:23.532Z,15.13
2019-03-13T01:38:30.008Z,14.87
2019-03-13T01:39:36.240Z,12.70
2019-03-13T01:40:41.530Z,11.53
2019-03-13T01:41:46.856Z,15.30
2019-03-13T01:42:52.110Z,17.00
2019-03-13T01:43:57.339Z,11.50
2019-03-13T01:45:02.622Z,10.70
2019-03-13T01:46:08.312Z,16.33
2019-03-13T01:47:13.593Z,10.80
2019-03-13T01:48:18.893Z,16.53
2019-03-13T01:49:24.058Z,14.60
2019-03-13T01:50:29.268Z,15.57
2019-03-13T01:51:34.390Z,14.40
2019-03-13T01:52:39.632Z,13.50
2019-03-13T01:53:44.918Z,11.30
2019-03-13T01:54:50.184Z,12.57
2019-03-13T01:55:55.374Z,14.90
2019-03-13T01:57:00.682Z,15.90
2019-03-13T01:58:05.986Z,14.37
2019-03-13T01:59:11.244Z,15.57
2019-03-13T02:00:17.256Z,13.73
2019-03-13T02:01:23.642Z,13.63
2019-03-13T02:02:28.890Z,18.67
2019-03-13T02:03:34.208Z,16.17
2019-03-13T02:04:39.501Z,13.30
2019-03-13T02:05:44.769Z,15.30
2019-03-13T02:06:51.048Z,14.97
2019-03-13T02:07:56.352Z,14.50
2019-03-13T02:09:01.662Z,14.73
2019-03-13T02:10:09.554Z,14.63
2019-03-13T02:11:14.818Z,12.57
2019-03-13T02:12:20.115Z,16.33
2019-03-13T02:13:25.331Z,12.47
2019-03-13T02:14:30.588Z,16.87
2019-03-13T02:15:35.856Z,14.73
2019-03-13T02:16:41.103Z,15.83
2019-03-13T02:17:46.481Z,15.07
2019-03-13T02:18:51.783Z,12.40
2019-03-13T02:19:57.055Z,14.73
2019-03-13T02:21:02.230Z,17.27
2019-03-13T02:22:07.614Z,15.37
2019-03-13T02:23:12.935Z,13.47
2019-03-13T02:24:18.269Z,14.17
2019-03-13T02:25:23.436Z,15.13
2019-03-13T02:26:28.768Z,12.13
2019-03-13T02:27:34.128Z,13.47
2019-03-13T02:28:39.429Z,13.07
2019-03-13T02:29:44.697Z,14.07
2019-03-13T02:30:49.937Z,14.00
2019-03-13T02:31:55.220Z,13.07
2019-03-13T02:33:00.522Z,17.50
2019-03-13T02:34:05.908Z,15.93
2019-03-13T02:35:11.226Z,14.30
2019-03-13T02:36:16.531Z,16.53
2019-03-13T02:37:21.780Z,14.57
2019-03-13T02:38:27.182Z,11.30
2019-03-13T02:39:32.619Z,12.70
2019-03-13T02:40:37.900Z,14.97
2019-03-13T02:41:43.175Z,10.83
2019-03-13T02:42:48.506Z,15.33
2019-03-13T02:43:53.956Z,13.90
2019-03-13T02:44:59.220Z,11.33
2019-03-13T02:46:04.372Z,12.00
2019-03-13T02:47:09.634Z,12.90
2019-03-13T02:48:14.998Z,14.53
2019-03-13T02:49:20.330Z,14.00
2019-03-13T02:50:25.629Z,12.73
2019-03-13T02:51:30.926Z,11.33
2019-03-13T02:52:36.253Z,11.87
2019-03-13T02:53:41.538Z,10.87
2019-03-13T02:54:47.912Z,14.20
2019-03-13T02:55:53.223Z,17.93
2019-03-13T02:56:58.597Z,13.47
2019-03-13T02:58:03.873Z,15.37
2019-03-13T02:59:09.099Z,12.00
2019-03-13T03:00:16.060Z,10.77
2019-03-13T03:01:29.086Z,12.37
2019-03-13T03:02:43.744Z,12.67
2019-03-13T03:03:52.169Z,15.33
2019-03-13T03:04:57.394Z,9.50
2019-03-13T03:06:02.635Z,8.57
2019-03-13T03:07:07.912Z,17.23
2019-03-13T03:08:13.206Z,10.20
2019-03-13T03:09:18.499Z,11.13
2019-03-13T03:10:23.724Z,11.70
2019-03-13T03:11:29.008Z,10.27
2019-03-13T03:12:34.233Z,10.57
2019-03-13T03:13:39.699Z,12.60
2019-03-13T03:15:00.939Z,10.03
2019-03-13T03:16:06.289Z,10.80
2019-03-13T03:17:12.618Z,12.07
2019-03-13T03:18:17.934Z,20.13
2019-03-13T03:19:23.201Z,10.00
2019-03-13T03:20:28.453Z,11.83
2019-03-13T03:21:33.684Z,11.60
2019-03-13T03:22:38.834Z,14.07
2019-03-13T03:23:45.474Z,15.50
2019-03-13T03:24:51.105Z,19.03
2019-03-13T03:25:56.410Z,15.37
2019-03-13T03:27:01.649Z,8.30
2019-03-13T03:28:06.916Z,13.97
2019-03-13T03:29:12.256Z,7.90
2019-03-13T03:30:20.535Z,13.53
2019-03-13T03:31:25.744Z,10.50
2019-03-13T03:32:31.049Z,13.43
2019-03-13T03:33:36.241Z,10.53
2019-03-13T03:34:41.550Z,11.90
2019-03-13T03:35:46.813Z,10.97
2019-03-13T03:36:52.037Z,15.73
2019-03-13T03:37:57.184Z,11.27
2019-03-13T03:39:02.528Z,11.17
2019-03-13T03:40:11.076Z,11.17
2019-03-13T03:41:16.335Z,13.20
2019-03-13T03:42:21.590Z,13.53
2019-03-13T03:43:39.303Z,16.20
2019-03-13T03:44:33.649Z,11.60
2019-03-13T03:45:38.909Z,13.20
2019-03-13T03:46:44.142Z,14.07
2019-03-13T03:47:49.431Z,11.87
2019-03-13T03:48:54.593Z,12.30
2019-03-13T03:49:59.789Z,13.93
2019-03-13T03:51:05.006Z,9.90
2019-03-13T03:52:10.250Z,13.30
2019-03-13T03:53:15.425Z,13.67
2019-03-13T03:54:20.723Z,17.33
2019-03-13T03:55:25.879Z,13.27
2019-03-13T03:56:31.157Z,15.70
2019-03-13T03:57:36.485Z,15.20
2019-03-13T03:58:41.691Z,14.43
2019-03-13T03:59:46.876Z,12.93
2019-03-13T04:00:52.162Z,16.13
2019-03-13T04:01:57.456Z,13.20
2019-03-13T04:03:02.737Z,13.63
2019-03-13T04:04:07.939Z,9.77
2019-03-13T04:05:13.293Z,14.27
2019-03-13T04:06:18.644Z,9.33
2019-03-13T04:07:24.017Z,13.50
2019-03-13T04:08:29.295Z,13.53
2019-03-13T04:09:34.535Z,15.70
2019-03-13T04:10:41.422Z,9.90
2019-03-13T04:11:46.676Z,16.00
2019-03-13T04:12:51.957Z,17.93
2019-03-13T04:13:58.191Z,16.43
2019-03-13T04:15:03.481Z,10.37
2019-03-13T04:16:08.709Z,14.83
2019-03-13T04:17:13.975Z,18.70
2019-03-13T04:18:19.259Z,18.50
2019-03-13T04:19:24.392Z,12.77
2019-03-13T04:20:30.480Z,12.33
2019-03-13T04:21:35.785Z,18.30
2019-03-13T04:22:41.049Z,14.23
2019-03-13T04:23:46.240Z,12.90
2019-03-13T04:24:51.839Z,19.77
2019-03-13T04:25:57.065Z,19.77
2019-03-13T04:27:02.433Z,18.53
2019-03-13T04:28:08.000Z,16.10
2019-03-13T04:29:13.312Z,20.43
2019-03-13T04:30:18.597Z,16.40
2019-03-13T04:31:23.947Z,14.10
2019-03-13T04:32:29.297Z,11.63
2019-03-13T04:33:34.568Z,19.03
2019-03-13T04:34:39.860Z,16.97
2019-03-13T04:35:45.169Z,15.17
2019-03-13T04:36:50.590Z,16.17
2019-03-13T04:37:55.848Z,17.47
2019-03-13T04:39:01.094Z,16.90
2019-03-13T04:40:08.047Z,13.23
2019-03-13T04:41:13.353Z,18.77
2019-03-13T04:42:18.510Z,12.67
2019-03-13T04:43:24.012Z,24.47
2019-03-13T04:44:30.281Z,18.63
2019-03-13T04:45:35.579Z,12.83
2019-03-13T04:46:40.828Z,17.33
2019-03-13T04:47:46.100Z,16.63
2019-03-13T04:48:51.410Z,17.97
2019-03-13T04:49:57.670Z,16.37
2019-03-13T04:51:02.993Z,14.07
2019-03-13T04:52:08.244Z,16.13
2019-03-13T04:53:13.541Z,27.73
2019-03-13T04:54:18.735Z,15.47
2019-03-13T04:55:24.067Z,18.77
2019-03-13T04:56:29.417Z,14.07
2019-03-13T04:57:34.736Z,17.70
2019-03-13T04:58:39.920Z,20.80
2019-03-13T04:59:45.221Z,17.17
2019-03-13T05:00:50.575Z,17.63
2019-03-13T05:01:56.975Z,20.30
2019-03-13T05:03:02.187Z,14.87
2019-03-13T05:04:07.434Z,21.03
2019-03-13T05:05:47.871Z,15.80
2019-03-13T05:06:53.118Z,10.43
2019-03-13T05:07:58.370Z,18.30
2019-03-13T05:09:11.782Z,17.10
2019-03-13T05:10:17.011Z,18.83
2019-03-13T05:11:22.352Z,17.37
2019-03-13T05:12:27.667Z,14.73
2019-03-13T05:13:32.878Z,18.77
2019-03-13T05:14:38.030Z,14.13
2019-03-13T05:15:44.355Z,15.20
2019-03-13T05:16:49.670Z,20.43
2019-03-13T05:17:54.875Z,13.90
2019-03-13T05:19:01.261Z,22.10
2019-03-13T05:20:07.018Z,22.13
2019-03-13T05:21:12.222Z,17.33
2019-03-13T05:22:17.478Z,20.83
2019-03-13T05:23:22.760Z,20.13
2019-03-13T05:24:28.068Z,15.87
2019-03-13T05:25:33.170Z,12.50
2019-03-13T05:26:38.439Z,15.93
2019-03-13T05:27:43.701Z,19.10
2019-03-13T05:28:49.006Z,16.73
2019-03-13T05:29:55.230Z,16.63
2019-03-13T05:31:00.474Z,17.87
2019-03-13T05:32:05.772Z,20.90
2019-03-13T05:33:11.080Z,15.37
2019-03-13T05:34:16.323Z,16.33
2019-03-13T05:35:21.534Z,15.33
2019-03-13T05:36:26.861Z,18.10
2019-03-13T05:37:32.044Z,23.80
2019-03-13T05:38:37.351Z,13.13
2019-03-13T05:39:42.529Z,17.03
2019-03-13T05:40:47.796Z,17.83
2019-03-13T05:41:53.056Z,15.93
2019-03-13T05:42:58.296Z,16.63
2019-03-13T05:44:03.613Z,18.53
2019-03-13T05:45:08.921Z,19.07
2019-03-13T05:46:14.125Z,17.90
2019-03-13T05:47:19.373Z,20.60
2019-03-13T05:48:24.642Z,18.20
2019-03-13T05:49:29.980Z,16.03
2019-03-13T05:50:35.267Z,17.97
2019-03-13T05:51:40.500Z,22.43
2019-03-13T05:52:45.802Z,21.27
2019-03-13T05:53:51.066Z,21.67
2019-03-13T05:54:56.301Z,14.83
2019-03-13T05:56:01.481Z,18.97
2019-03-13T05:57:06.872Z,20.40
2019-03-13T05:58:12.112Z,16.20
2019-03-13T05:59:17.556Z,22.47
2019-03-13T06:00:23.971Z,16.97
2019-03-13T06:01:29.407Z,11.80
2019-03-13T06:02:34.683Z,18.23
2019-03-13T06:03:41.013Z,18.73
2019-03-13T06:04:46.342Z,19.67
2019-03-13T06:05:51.519Z,14.97
2019-03-13T06:06:56.837Z,19.87
2019-03-13T06:08:02.091Z,15.23
2019-03-13T06:09:08.246Z,14.43
2019-03-13T06:10:13.716Z,22.67
2019-03-13T06:11:19.094Z,20.13
2019-03-13T06:12:24.370Z,17.37
2019-03-13T06:13:29.580Z,18.07
2019-03-13T06:14:35.010Z,17.73
2019-03-13T06:15:40.191Z,18.20
2019-03-13T06:16:45.374Z,18.27
2019-03-13T06:17:50.603Z,27.03
2019-03-13T06:18:55.897Z,18.03
2019-03-13T06:20:01.314Z,16.30
2019-03-13T06:21:06.509Z,20.17
2019-03-13T06:22:12.738Z,20.13
2019-03-13T06:23:18.069Z,18.27
2019-03-13T06:24:24.500Z,14.43
2019-03-13T06:25:29.789Z,15.90
2019-03-13T06:26:35.007Z,16.87
2019-03-13T06:27:40.284Z,21.27
2019-03-13T06:28:45.550Z,20.80
2019-03-13T06:29:50.802Z,23.17
2019-03-13T06:30:56.091Z,20.60
2019-03-13T06:32:04.803Z,16.60
2019-03-13T06:33:28.997Z,16.53
2019-03-13T06:34:34.666Z,16.30
2019-03-13T06:35:39.916Z,24.97
2019-03-13T06:36:45.150Z,18.60
2019-03-13T06:37:50.415Z,20.10
2019-03-13T06:38:55.685Z,16.90
2019-03-13T06:40:02.052Z,17.93
2019-03-13T06:41:07.448Z,24.37
2019-03-13T06:42:12.603Z,19.20
2019-03-13T06:43:17.859Z,22.57
2019-03-13T06:44:23.140Z,21.23
2019-03-13T06:45:28.372Z,21.33
2019-03-13T06:46:33.583Z,16.10
2019-03-13T06:47:38.733Z,20.70
2019-03-13T06:48:44.037Z,20.17
2019-03-13T06:49:49.341Z,22.83
2019-03-13T06:50:54.662Z,20.63
2019-03-13T06:51:59.844Z,13.37
2019-03-13T06:53:05.109Z,15.60
2019-03-13T06:54:10.388Z,19.83
2019-03-13T06:55:15.625Z,17.43
2019-03-13T06:56:20.883Z,18.90
2019-03-13T06:57:26.117Z,20.97
2019-03-13T06:58:37.146Z,18.47
2019-03-13T07:00:00.390Z,21.83
2019-03-13T07:01:33.865Z,21.13
2019-03-13T07:03:10.175Z,19.77
2019-03-13T07:04:39.649Z,17.10
2019-03-13T07:06:05.013Z,19.97
2019-03-13T07:07:32.189Z,22.20
2019-03-13T07:08:50.831Z,26.00
2019-03-13T07:10:13.734Z,18.50
2019-03-13T07:11:40.967Z,20.23
2019-03-13T07:13:07.265Z,18.23
2019-03-13T07:14:26.813Z,17.83
2019-03-13T07:15:49.756Z,17.80
2019-03-13T07:17:29.077Z,21.67
2019-03-13T07:18:59.676Z,22.63
2019-03-13T07:20:26.279Z,14.87
2019-03-13T07:22:05.800Z,17.33
2019-03-13T07:23:21.309Z,19.13
2019-03-13T07:24:36.342Z,16.43
2019-03-13T07:25:53.400Z,17.63
2019-03-13T07:27:17.609Z,19.13
2019-03-13T07:28:40.373Z,21.53
2019-03-13T07:30:10.474Z,18.40
2019-03-13T07:31:34.734Z,18.70
2019-03-13T07:32:56.599Z,21.90
2019-03-13T07:34:17.226Z,24.47
2019-03-13T07:35:44.413Z,23.73
2019-03-13T07:37:07.569Z,20.83
2019-03-13T07:38:34.603Z,20.83
2019-03-13T07:39:57.482Z,26.17
2019-03-13T07:41:09.442Z,17.10
2019-03-13T07:42:33.427Z,18.57
2019-03-13T07:44:09.769Z,16.33
2019-03-13T07:45:36.722Z,19.23
2019-03-13T07:46:57.525Z,20.93
2019-03-13T07:48:28.022Z,18.87
2019-03-13T07:50:07.873Z,22.13
2019-03-13T07:51:30.694Z,20.23
2019-03-13T07:53:00.970Z,19.10
2019-03-13T07:54:25.145Z,18.80
2019-03-13T07:56:01.702Z,20.90
2019-03-13T07:57:15.171Z,22.23
2019-03-13T07:58:38.276Z,26.57
2019-03-13T08:00:08.482Z,16.83
2019-03-13T08:01:24.123Z,19.03
2019-03-13T08:02:57.436Z,18.53
2019-03-13T08:04:31.911Z,19.40
2019-03-13T08:06:02.257Z,19.03
2019-03-13T08:07:21.690Z,22.97
2019-03-13T08:08:46.098Z,16.57
2019-03-13T08:10:12.296Z,20.93
2019-03-13T08:11:35.110Z,24.80
2019-03-13T08:12:59.258Z,22.63
2019-03-13T08:14:35.489Z,19.10
2019-03-13T08:16:02.340Z,18.20
2019-03-13T08:17:24.743Z,16.60
2019-03-13T08:18:48.954Z,22.47
2019-03-13T08:20:23.317Z,16.73
2019-03-13T08:21:47.160Z,16.67
2019-03-13T08:23:20.287Z,23.33
2019-03-13T08:24:45.294Z,16.73
2019-03-13T08:26:09.526Z,16.40
2019-03-13T08:27:32.140Z,17.23
2019-03-13T08:28:55.025Z,19.00
2019-03-13T08:30:20.398Z,16.00
2019-03-13T08:31:37.911Z,21.30
2019-03-13T08:33:02.111Z,20.67
2019-03-13T08:34:29.450Z,18.83
2019-03-13T08:35:56.466Z,20.33
2019-03-13T08:37:10.012Z,25.57
2019-03-13T08:38:30.684Z,21.23
2019-03-13T08:40:01.207Z,16.77
2019-03-13T08:41:20.487Z,18.40
2019-03-13T08:42:43.240Z,19.57
2019-03-13T08:44:25.928Z,15.33
2019-03-13T08:45:54.224Z,22.60
2019-03-13T08:47:21.478Z,20.53
2019-03-13T08:48:44.112Z,15.83
2019-03-13T08:50:14.291Z,12.63
2019-03-13T08:51:37.424Z,15.27
2019-03-13T08:53:04.636Z,20.87
2019-03-13T08:54:44.151Z,18.00
2019-03-13T08:56:14.474Z,16.97
2019-03-13T08:57:37.625Z,18.97
2019-03-13T08:59:10.668Z,18.10
2019-03-13T09:00:40.946Z,20.13
2019-03-13T09:02:14.409Z,13.10
2019-03-13T09:03:37.153Z,14.93
2019-03-13T09:05:08.272Z,16.13
2019-03-13T09:06:35.327Z,14.47
2019-03-13T09:07:50.433Z,14.27
2019-03-13T09:09:09.901Z,15.23
2019-03-13T09:10:33.351Z,17.37
2019-03-13T09:11:57.561Z,13.50
2019-03-13T09:13:21.812Z,18.23
2019-03-13T09:14:47.739Z,15.53
2019-03-13T09:15:59.921Z,16.40
2019-03-13T09:17:20.122Z,20.30
2019-03-13T09:18:38.881Z,14.73
2019-03-13T09:20:00.396Z,12.10
2019-03-13T09:21:33.430Z,15.53
2019-03-13T09:22:53.203Z,21.53
2019-03-13T09:24:12.362Z,17.83
2019-03-13T09:25:36.612Z,15.13
2019-03-13T09:27:00.387Z,16.30
2019-03-13T09:28:36.725Z,16.80
2019-03-13T09:29:52.750Z,18.60
2019-03-13T09:31:10.955Z,18.17
2019-03-13T09:32:38.185Z,19.87
2019-03-13T09:34:00.352Z,17.87
2019-03-13T09:35:12.556Z,18.67
2019-03-13T09:36:28.414Z,14.33
2019-03-13T09:37:51.258Z,12.97
2019-03-13T09:39:07.568Z,21.50
2019-03-13T09:40:25.374Z,18.23
2019-03-13T09:41:58.568Z,22.23
2019-03-13T09:43:34.817Z,14.10
2019-03-13T09:44:49.725Z,17.90
2019-03-13T09:46:12.370Z,19.93
2019-03-13T09:47:39.451Z,18.47
2019-03-13T09:49:15.916Z,15.43
2019-03-13T09:50:35.690Z,14.47
2019-03-13T09:51:49.422Z,15.30
2019-03-13T09:53:09.174Z,13.07
2019-03-13T09:54:23.654Z,13.17
2019-03-13T09:55:47.860Z,13.87
2019-03-13T09:57:17.974Z,10.27
2019-03-13T09:58:43.730Z,10.97
2019-03-13T10:00:11.173Z,13.27
2019-03-13T10:01:22.540Z,20.27
2019-03-13T10:02:46.895Z,17.77
2019-03-13T10:04:09.704Z,13.37
2019-03-13T10:05:33.868Z,13.53
2019-03-13T10:07:05.239Z,13.73
2019-03-13T10:08:38.655Z,15.83
2019-03-13T10:10:01.705Z,16.20
2019-03-13T10:11:23.096Z,8.37
2019-03-13T10:12:37.402Z,14.57
2019-03-13T10:13:49.638Z,16.33
2019-03-13T10:15:16.818Z,11.23
2019-03-13T10:16:43.787Z,14.93
2019-03-13T10:17:59.033Z,11.10
2019-03-13T10:19:33.394Z,9.10
2019-03-13T10:21:00.774Z,10.17
2019-03-13T10:22:19.971Z,9.43
2019-03-13T10:23:46.984Z,13.70
2019-03-13T10:25:04.907Z,14.80
2019-03-13T10:26:23.347Z,14.53
2019-03-13T10:27:38.083Z,13.60
2019-03-13T10:29:20.602Z,11.57
2019-03-13T10:30:39.635Z,11.77
2019-03-13T10:31:52.974Z,9.27
2019-03-13T10:33:18.882Z,10.03
2019-03-13T10:34:39.125Z,14.40
2019-03-13T10:36:03.367Z,12.57
2019-03-13T10:37:19.247Z,11.00
2019-03-13T10:38:45.638Z,12.70
2019-03-13T10:40:03.853Z,9.53
2019-03-13T10:41:28.626Z,11.73
2019-03-13T10:42:43.742Z,11.33
2019-03-13T10:44:01.852Z,14.60
2019-03-13T10:45:12.568Z,16.47
2019-03-13T10:46:47.875Z,13.90
2019-03-13T10:48:14.883Z,11.33
2019-03-13T10:49:29.684Z,10.97
2019-03-13T10:51:09.153Z,11.03
2019-03-13T10:52:32.071Z,11.63
2019-03-13T10:54:08.361Z,12.77
2019-03-13T10:55:38.536Z,12.37
2019-03-13T10:57:11.737Z,15.00
2019-03-13T10:58:47.958Z,13.13
2019-03-13T11:00:01.314Z,10.33
2019-03-13T11:01:27.341Z,10.80
2019-03-13T11:02:57.524Z,11.70
2019-03-13T11:04:17.657Z,17.93
2019-03-13T11:06:00.300Z,16.23
2019-03-13T11:07:13.688Z,14.90
2019-03-13T11:08:27.398Z,15.93
2019-03-13T11:09:48.725Z,14.80
2019-03-13T11:11:03.466Z,15.97
2019-03-13T11:12:19.247Z,13.60
2019-03-13T11:13:35.807Z,14.37
2019-03-13T11:15:15.173Z,12.97
2019-03-13T11:16:27.191Z,11.37
2019-03-13T11:17:51.261Z,23.17
2019-03-13T11:19:15.511Z,15.93
2019-03-13T11:20:38.646Z,12.63
2019-03-13T11:22:15.213Z,13.87
2019-03-13T11:23:42.487Z,11.43
2019-03-13T11:24:53.439Z,14.13
2019-03-13T11:26:04.461Z,18.37
2019-03-13T11:27:31.030Z,11.80
2019-03-13T11:28:51.609Z,16.53
2019-03-13T11:30:09.554Z,11.73
2019-03-13T11:31:36.661Z,20.13
2019-03-13T11:32:55.406Z,16.80
2019-03-13T11:34:19.680Z,22.73
2019-03-13T11:35:43.985Z,16.37
